MSR77W HEGN-HEAX
Flight info
| Callsign | MSR77W |
|---|---|
| Flight time | 0h 47m |
| Altitude | 32000 |
| Route | SOLOX1B SOLOX V603 GIDID DCT KAPIT L677 CVO L617 NOZ |
| Aircraft | B77W/H-SDE1E2E3FGHIJ2J3J4J5M1RWXY/LB1D1 |
Departure
| Time | 2026-04-21 15:49 |
|---|---|
| Airport | Hurghada International Airport (HEGN) |
Arrival
| Time | 2026-04-21 16:36 |
|---|---|
| Airport | Alexandria International Airport (HEAX) |
| Time | Latitude | Longitude | Altitude | Speed | Heading |
|---|---|---|---|---|---|
| 2026-04-21 15:21 | 27.18065 | 33.80576 | 43 ft | 0 kts | 46° |
| 2026-04-21 15:38 | 27.18061 | 33.80571 | 42 ft | 4 kts | 51° |
| 2026-04-21 15:38 | 27.18051 | 33.80546 | 40 ft | 4 kts | 86° |
| 2026-04-21 15:38 | 27.18046 | 33.80524 | 39 ft | 4 kts | 68° |
| 2026-04-21 15:39 | 27.18040 | 33.80495 | 40 ft | 4 kts | 98° |
| 2026-04-21 15:39 | 27.18050 | 33.80470 | 38 ft | 4 kts | 141° |
| 2026-04-21 15:39 | 27.18066 | 33.80459 | 40 ft | 0 kts | 165° |
| 2026-04-21 15:42 | 27.18058 | 33.80463 | 39 ft | 6 kts | 162° |
| 2026-04-21 15:43 | 27.17961 | 33.80493 | 43 ft | 23 kts | 164° |
| 2026-04-21 15:43 | 27.17781 | 33.80549 | 42 ft | 29 kts | 164° |
| 2026-04-21 15:43 | 27.17629 | 33.80583 | 41 ft | 11 kts | 178° |
| 2026-04-21 15:43 | 27.17551 | 33.80611 | 40 ft | 13 kts | 174° |
| 2026-04-21 15:44 | 27.17485 | 33.80546 | 40 ft | 14 kts | 249° |
| 2026-04-21 15:44 | 27.17450 | 33.80434 | 40 ft | 16 kts | 256° |
| 2026-04-21 15:44 | 27.17424 | 33.80304 | 40 ft | 18 kts | 258° |
| 2026-04-21 15:44 | 27.17398 | 33.80168 | 42 ft | 18 kts | 258° |
| 2026-04-21 15:45 | 27.17367 | 33.80017 | 41 ft | 21 kts | 257° |
| 2026-04-21 15:45 | 27.17322 | 33.79858 | 40 ft | 22 kts | 253° |
| 2026-04-21 15:45 | 27.17279 | 33.79688 | 40 ft | 23 kts | 255° |
| 2026-04-21 15:45 | 27.17214 | 33.79525 | 40 ft | 24 kts | 210° |
| 2026-04-21 15:46 | 27.17049 | 33.79543 | 39 ft | 25 kts | 163° |
| 2026-04-21 15:46 | 27.16878 | 33.79600 | 38 ft | 26 kts | 165° |
| 2026-04-21 15:46 | 27.16691 | 33.79654 | 37 ft | 29 kts | 166° |
| 2026-04-21 15:46 | 27.16486 | 33.79713 | 36 ft | 32 kts | 165° |
| 2026-04-21 15:47 | 27.16265 | 33.79777 | 35 ft | 34 kts | 166° |
| 2026-04-21 15:47 | 27.16042 | 33.79841 | 34 ft | 10 kts | 166° |
| 2026-04-21 15:47 | 27.15968 | 33.79836 | 34 ft | 12 kts | 213° |
| 2026-04-21 15:47 | 27.15925 | 33.79754 | 35 ft | 13 kts | 254° |
| 2026-04-21 15:48 | 27.15967 | 33.79669 | 34 ft | 14 kts | 333° |
| 2026-04-21 15:48 | 27.16061 | 33.79633 | 35 ft | 15 kts | 346° |
| 2026-04-21 15:48 | 27.16279 | 33.79572 | 34 ft | 81 kts | 346° |
| 2026-04-21 15:48 | 27.17226 | 33.79314 | 119 ft | 186 kts | 347° |
| 2026-04-21 15:49 | 27.18625 | 33.78886 | 806 ft | 216 kts | 345° |
| 2026-04-21 15:49 | 27.19981 | 33.78421 | 1676 ft | 205 kts | 342° |
| 2026-04-21 15:49 | 27.21424 | 33.78001 | 2032 ft | 220 kts | 347° |
| 2026-04-21 15:49 | 27.22963 | 33.77642 | 3048 ft | 231 kts | 346° |
| 2026-04-21 15:50 | 27.24567 | 33.77259 | 4093 ft | 241 kts | 346° |
| 2026-04-21 15:50 | 27.26251 | 33.76841 | 5112 ft | 252 kts | 346° |
| 2026-04-21 15:50 | 27.28007 | 33.76391 | 6031 ft | 267 kts | 347° |
| 2026-04-21 15:50 | 27.29838 | 33.75915 | 6296 ft | 264 kts | 347° |
| 2026-04-21 15:51 | 27.31560 | 33.75463 | 6294 ft | 251 kts | 347° |
| 2026-04-21 15:51 | 27.33317 | 33.74992 | 6431 ft | 270 kts | 348° |
| 2026-04-21 15:51 | 27.35198 | 33.74598 | 6575 ft | 280 kts | 355° |
| 2026-04-21 15:51 | 27.37193 | 33.74442 | 6666 ft | 293 kts | 358° |
| 2026-04-21 15:52 | 27.39264 | 33.74342 | 6818 ft | 303 kts | 358° |
| 2026-04-21 15:52 | 27.41411 | 33.74237 | 6909 ft | 315 kts | 358° |
| 2026-04-21 15:52 | 27.42851 | 33.74161 | 6994 ft | 321 kts | 357° |
| 2026-04-21 15:52 | 27.45900 | 33.73989 | 7127 ft | 335 kts | 357° |
| 2026-04-21 15:53 | 27.48247 | 33.73850 | 7392 ft | 339 kts | 357° |
| 2026-04-21 15:53 | 27.50621 | 33.73708 | 7640 ft | 344 kts | 356° |
| 2026-04-21 15:53 | 27.53033 | 33.73561 | 7861 ft | 348 kts | 357° |
| 2026-04-21 15:53 | 27.55475 | 33.73405 | 8052 ft | 355 kts | 357° |
| 2026-04-21 15:54 | 27.57906 | 33.73246 | 8421 ft | 354 kts | 357° |
| 2026-04-21 15:54 | 27.60378 | 33.73081 | 8605 ft | 358 kts | 355° |
| 2026-04-21 15:54 | 27.62899 | 33.72741 | 8822 ft | 362 kts | 352° |
| 2026-04-21 15:54 | 27.65356 | 33.72316 | 9060 ft | 365 kts | 351° |
| 2026-04-21 15:55 | 27.67879 | 33.71871 | 9383 ft | 365 kts | 351° |
| 2026-04-21 15:55 | 27.70383 | 33.71442 | 9771 ft | 362 kts | 351° |
| 2026-04-21 15:55 | 27.72890 | 33.71028 | 9982 ft | 365 kts | 351° |
| 2026-04-21 15:55 | 27.75414 | 33.70624 | 10212 ft | 368 kts | 351° |
| 2026-04-21 15:56 | 27.77968 | 33.70221 | 10464 ft | 372 kts | 351° |
| 2026-04-21 15:56 | 27.80523 | 33.69825 | 10730 ft | 370 kts | 351° |
| 2026-04-21 15:56 | 27.83071 | 33.69433 | 10957 ft | 371 kts | 351° |
| 2026-04-21 15:56 | 27.85632 | 33.69039 | 11264 ft | 370 kts | 351° |
| 2026-04-21 15:57 | 27.88209 | 33.68642 | 11374 ft | 375 kts | 352° |
| 2026-04-21 15:57 | 27.90797 | 33.68243 | 11643 ft | 375 kts | 351° |
| 2026-04-21 15:57 | 27.93374 | 33.67847 | 12036 ft | 370 kts | 350° |
| 2026-04-21 15:57 | 27.95880 | 33.67463 | 12778 ft | 357 kts | 351° |
| 2026-04-21 15:58 | 27.98296 | 33.67093 | 13532 ft | 344 kts | 351° |
| 2026-04-21 15:58 | 28.00626 | 33.66738 | 14235 ft | 331 kts | 350° |
| 2026-04-21 15:58 | 28.02867 | 33.66396 | 14943 ft | 318 kts | 348° |
| 2026-04-21 15:58 | 28.05021 | 33.66065 | 15650 ft | 310 kts | 348° |
| 2026-04-21 15:59 | 28.07190 | 33.65731 | 16443 ft | 321 kts | 348° |
| 2026-04-21 15:59 | 28.09439 | 33.65389 | 17256 ft | 332 kts | 346° |
| 2026-04-21 15:59 | 28.11766 | 33.65037 | 18099 ft | 342 kts | 347° |
| 2026-04-21 15:59 | 28.14163 | 33.64670 | 18840 ft | 352 kts | 347° |
| 2026-04-21 16:00 | 28.16627 | 33.64286 | 19576 ft | 362 kts | 347° |
| 2026-04-21 16:00 | 28.19145 | 33.63857 | 20323 ft | 368 kts | 342° |
| 2026-04-21 16:00 | 28.21574 | 33.62946 | 21104 ft | 368 kts | 330° |
| 2026-04-21 16:00 | 28.23815 | 33.61528 | 21917 ft | 370 kts | 320° |
| 2026-04-21 16:01 | 28.25828 | 33.59710 | 22737 ft | 372 kts | 315° |
| 2026-04-21 16:01 | 28.27811 | 33.57794 | 23568 ft | 377 kts | 314° |
| 2026-04-21 16:01 | 28.29820 | 33.55831 | 24281 ft | 383 kts | 314° |
| 2026-04-21 16:01 | 28.31852 | 33.53847 | 25016 ft | 388 kts | 313° |
| 2026-04-21 16:02 | 28.33892 | 33.51865 | 25779 ft | 393 kts | 313° |
| 2026-04-21 16:02 | 28.39691 | 33.46269 | 27885 ft | 400 kts | 313° |
| 2026-04-21 16:02 | 28.57294 | 33.29313 | 31746 ft | 444 kts | 312° |
| 2026-04-21 16:02 | 28.76807 | 33.10445 | 32090 ft | 465 kts | 313° |
| 2026-04-21 16:03 | 28.96299 | 32.91530 | 31922 ft | 454 kts | 313° |
| 2026-04-21 16:03 | 29.15213 | 32.73047 | 31911 ft | 443 kts | 313° |
| 2026-04-21 16:03 | 29.43042 | 32.38649 | 32142 ft | 447 kts | 302° |
| 2026-04-21 16:04 | 29.58384 | 32.16213 | 32041 ft | 451 kts | 303° |
| 2026-04-21 16:04 | 29.73629 | 31.93718 | 31961 ft | 441 kts | 303° |
| 2026-04-21 16:04 | 30.03299 | 31.47991 | 32089 ft | 451 kts | 302° |
| 2026-04-21 16:05 | 30.15300 | 31.31824 | 32011 ft | 454 kts | 313° |
| 2026-04-21 16:05 | 30.20037 | 31.27031 | 31998 ft | 454 kts | 313° |
| 2026-04-21 16:06 | 30.24707 | 31.22159 | 32016 ft | 455 kts | 313° |
| 2026-04-21 16:06 | 30.29363 | 31.17180 | 32024 ft | 456 kts | 312° |
| 2026-04-21 16:07 | 30.34009 | 31.12169 | 32025 ft | 456 kts | 312° |
| 2026-04-21 16:07 | 30.38653 | 31.07154 | 32027 ft | 456 kts | 312° |
| 2026-04-21 16:08 | 30.45603 | 30.99642 | 32029 ft | 455 kts | 312° |
| 2026-04-21 16:09 | 30.50181 | 30.94693 | 31705 ft | 442 kts | 312° |
| 2026-04-21 16:09 | 30.52414 | 30.92279 | 31107 ft | 437 kts | 313° |
| 2026-04-21 16:09 | 30.54605 | 30.89907 | 30987 ft | 422 kts | 312° |
| 2026-04-21 16:09 | 30.56716 | 30.87622 | 30895 ft | 408 kts | 312° |
| 2026-04-21 16:10 | 30.58727 | 30.85444 | 30816 ft | 394 kts | 312° |
| 2026-04-21 16:10 | 30.60720 | 30.83281 | 30736 ft | 381 kts | 312° |
| 2026-04-21 16:10 | 30.62622 | 30.81215 | 30607 ft | 370 kts | 312° |
| 2026-04-21 16:10 | 30.64478 | 30.79196 | 30414 ft | 361 kts | 312° |
| 2026-04-21 16:11 | 30.66296 | 30.77215 | 30032 ft | 354 kts | 312° |
| 2026-04-21 16:11 | 30.68065 | 30.75289 | 29109 ft | 345 kts | 312° |
| 2026-04-21 16:11 | 30.69809 | 30.73388 | 28006 ft | 343 kts | 312° |
| 2026-04-21 16:11 | 30.71522 | 30.71516 | 26904 ft | 342 kts | 313° |
| 2026-04-21 16:12 | 30.73255 | 30.69624 | 25880 ft | 340 kts | 313° |
| 2026-04-21 16:12 | 30.74966 | 30.67757 | 24956 ft | 336 kts | 313° |
| 2026-04-21 16:12 | 30.76657 | 30.65911 | 24162 ft | 329 kts | 314° |
| 2026-04-21 16:12 | 30.78305 | 30.64111 | 23511 ft | 322 kts | 314° |
| 2026-04-21 16:13 | 30.79937 | 30.62327 | 22731 ft | 322 kts | 314° |
| 2026-04-21 16:13 | 30.81571 | 30.60539 | 21987 ft | 322 kts | 314° |
| 2026-04-21 16:13 | 30.83205 | 30.58751 | 21265 ft | 321 kts | 314° |
| 2026-04-21 16:13 | 30.84825 | 30.56978 | 20544 ft | 318 kts | 314° |
| 2026-04-21 16:14 | 30.86409 | 30.55244 | 19845 ft | 315 kts | 314° |
| 2026-04-21 16:14 | 30.88000 | 30.53503 | 19165 ft | 312 kts | 314° |
| 2026-04-21 16:14 | 30.89576 | 30.51775 | 18496 ft | 310 kts | 314° |
| 2026-04-21 16:14 | 30.91136 | 30.50065 | 17754 ft | 307 kts | 314° |
| 2026-04-21 16:15 | 30.92684 | 30.48368 | 17000 ft | 304 kts | 315° |
| 2026-04-21 16:15 | 30.94220 | 30.46682 | 16272 ft | 302 kts | 315° |
| 2026-04-21 16:15 | 30.95740 | 30.45013 | 15564 ft | 299 kts | 315° |
| 2026-04-21 16:15 | 30.97252 | 30.43353 | 14858 ft | 297 kts | 315° |
| 2026-04-21 16:16 | 30.98750 | 30.41706 | 14177 ft | 295 kts | 315° |
| 2026-04-21 16:16 | 31.00242 | 30.40065 | 13465 ft | 293 kts | 315° |
| 2026-04-21 16:16 | 31.01706 | 30.38455 | 12972 ft | 289 kts | 315° |
| 2026-04-21 16:16 | 31.03179 | 30.36834 | 12782 ft | 291 kts | 315° |
| 2026-04-21 16:17 | 31.04658 | 30.35206 | 12151 ft | 293 kts | 315° |
| 2026-04-21 16:17 | 31.06152 | 30.33562 | 11051 ft | 298 kts | 315° |
| 2026-04-21 16:17 | 31.07667 | 30.31871 | 9811 ft | 303 kts | 313° |
| 2026-04-21 16:17 | 31.08930 | 30.29928 | 8830 ft | 296 kts | 302° |
| 2026-04-21 16:18 | 31.09923 | 30.27909 | 8381 ft | 276 kts | 295° |
| 2026-04-21 16:18 | 31.10562 | 30.25849 | 8188 ft | 271 kts | 288° |
| 2026-04-21 16:18 | 31.11107 | 30.23709 | 8059 ft | 278 kts | 287° |
| 2026-04-21 16:18 | 31.11648 | 30.21562 | 8047 ft | 272 kts | 288° |
| 2026-04-21 16:19 | 31.12188 | 30.19474 | 8042 ft | 267 kts | 288° |
| 2026-04-21 16:19 | 31.12738 | 30.17392 | 8041 ft | 272 kts | 288° |
| 2026-04-21 16:19 | 31.13306 | 30.15275 | 8047 ft | 272 kts | 289° |
| 2026-04-21 16:19 | 31.13873 | 30.13181 | 8043 ft | 270 kts | 289° |
| 2026-04-21 16:20 | 31.14440 | 30.11102 | 8032 ft | 268 kts | 288° |
| 2026-04-21 16:20 | 31.15011 | 30.09012 | 8042 ft | 270 kts | 288° |
| 2026-04-21 16:20 | 31.15584 | 30.06910 | 8045 ft | 271 kts | 288° |
| 2026-04-21 16:20 | 31.16037 | 30.04765 | 8039 ft | 280 kts | 274° |
| 2026-04-21 16:21 | 31.15672 | 30.02452 | 8053 ft | 305 kts | 246° |
| 2026-04-21 16:21 | 31.14320 | 30.00475 | 8194 ft | 323 kts | 216° |
| 2026-04-21 16:21 | 31.12221 | 29.99586 | 8738 ft | 327 kts | 185° |
| 2026-04-21 16:21 | 31.10004 | 30.00127 | 9209 ft | 333 kts | 152° |
| 2026-04-21 16:22 | 31.08137 | 30.01780 | 9259 ft | 346 kts | 143° |
| 2026-04-21 16:22 | 31.05999 | 30.03066 | 8719 ft | 348 kts | 169° |
| 2026-04-21 16:22 | 31.03612 | 30.03007 | 8286 ft | 348 kts | 199° |
| 2026-04-21 16:22 | 31.01568 | 30.01612 | 8113 ft | 341 kts | 226° |
| 2026-04-21 16:23 | 30.99939 | 29.99608 | 8073 ft | 339 kts | 229° |
| 2026-04-21 16:23 | 30.98199 | 29.97714 | 8040 ft | 345 kts | 220° |
| 2026-04-21 16:23 | 30.96222 | 29.96142 | 8048 ft | 351 kts | 212° |
| 2026-04-21 16:23 | 30.94037 | 29.94851 | 8054 ft | 353 kts | 205° |
| 2026-04-21 16:24 | 30.91754 | 29.93774 | 8046 ft | 355 kts | 203° |
| 2026-04-21 16:24 | 30.89420 | 29.92809 | 8050 ft | 356 kts | 201° |
| 2026-04-21 16:24 | 30.87070 | 29.91891 | 8041 ft | 356 kts | 201° |
| 2026-04-21 16:24 | 30.84724 | 29.90983 | 8033 ft | 354 kts | 200° |
| 2026-04-21 16:25 | 30.82388 | 29.90075 | 8034 ft | 353 kts | 201° |
| 2026-04-21 16:25 | 30.80171 | 29.88879 | 8025 ft | 351 kts | 219° |
| 2026-04-21 16:25 | 30.78525 | 29.86836 | 8041 ft | 345 kts | 237° |
| 2026-04-21 16:25 | 30.77160 | 29.84541 | 8032 ft | 345 kts | 242° |
| 2026-04-21 16:26 | 30.76390 | 29.81944 | 8030 ft | 342 kts | 267° |
| 2026-04-21 16:26 | 30.76777 | 29.79255 | 8048 ft | 339 kts | 295° |
| 2026-04-21 16:26 | 30.78211 | 29.77135 | 8051 ft | 337 kts | 323° |
| 2026-04-21 16:26 | 30.80348 | 29.76066 | 8047 ft | 339 kts | 348° |
| 2026-04-21 16:27 | 30.82647 | 29.75470 | 8039 ft | 338 kts | 340° |
| 2026-04-21 16:27 | 30.84880 | 29.74592 | 8045 ft | 338 kts | 339° |
| 2026-04-21 16:27 | 30.87007 | 29.73505 | 8036 ft | 339 kts | 330° |
| 2026-04-21 16:27 | 30.89007 | 29.72057 | 8036 ft | 338 kts | 326° |
| 2026-04-21 16:28 | 30.91065 | 29.70755 | 7987 ft | 336 kts | 341° |
| 2026-04-21 16:28 | 30.93348 | 29.70454 | 7224 ft | 332 kts | 6° |
| 2026-04-21 16:28 | 30.95529 | 29.71275 | 6073 ft | 329 kts | 27° |
| 2026-04-21 16:28 | 30.97342 | 29.72883 | 4827 ft | 326 kts | 45° |
| 2026-04-21 16:29 | 30.98649 | 29.74996 | 3608 ft | 320 kts | 61° |
| 2026-04-21 16:29 | 30.99341 | 29.77467 | 2483 ft | 325 kts | 80° |
| 2026-04-21 16:29 | 30.99263 | 29.80094 | 2052 ft | 327 kts | 100° |
| 2026-04-21 16:29 | 30.98442 | 29.82590 | 1855 ft | 334 kts | 120° |
| 2026-04-21 16:30 | 30.96940 | 29.84606 | 1747 ft | 331 kts | 141° |
| 2026-04-21 16:30 | 30.94920 | 29.85885 | 1749 ft | 332 kts | 161° |
| 2026-04-21 16:30 | 30.92656 | 29.86416 | 1739 ft | 328 kts | 179° |
| 2026-04-21 16:30 | 30.90525 | 29.86127 | 1729 ft | 289 kts | 193° |
| 2026-04-21 16:31 | 30.88671 | 29.85706 | 1703 ft | 260 kts | 192° |
| 2026-04-21 16:31 | 30.86775 | 29.85303 | 1775 ft | 295 kts | 191° |
| 2026-04-21 16:31 | 30.84628 | 29.84862 | 1763 ft | 330 kts | 191° |
| 2026-04-21 16:31 | 30.82280 | 29.84391 | 1767 ft | 355 kts | 191° |
| 2026-04-21 16:32 | 30.79816 | 29.83744 | 1848 ft | 357 kts | 202° |
| 2026-04-21 16:32 | 30.77870 | 29.82255 | 1833 ft | 319 kts | 231° |
| 2026-04-21 16:32 | 30.76941 | 29.80117 | 1760 ft | 283 kts | 264° |
| 2026-04-21 16:32 | 30.77178 | 29.78027 | 1725 ft | 248 kts | 300° |
| 2026-04-21 16:33 | 30.78333 | 29.76755 | 1717 ft | 221 kts | 340° |
| 2026-04-21 16:33 | 30.79765 | 29.76735 | 1715 ft | 200 kts | 18° |
| 2026-04-21 16:33 | 30.81076 | 29.77263 | 1739 ft | 200 kts | 9° |
| 2026-04-21 16:33 | 30.82380 | 29.77143 | 1734 ft | 184 kts | 340° |
| 2026-04-21 16:34 | 30.83529 | 29.76566 | 1757 ft | 175 kts | 333° |
| 2026-04-21 16:34 | 30.84569 | 29.75867 | 1683 ft | 175 kts | 329° |
| 2026-04-21 16:34 | 30.85581 | 29.75089 | 1431 ft | 172 kts | 324° |
| 2026-04-21 16:34 | 30.86518 | 29.74267 | 1200 ft | 166 kts | 323° |
| 2026-04-21 16:35 | 30.87435 | 29.73455 | 991 ft | 165 kts | 324° |
| 2026-04-21 16:35 | 30.88341 | 29.72658 | 766 ft | 167 kts | 323° |
| 2026-04-21 16:35 | 30.89273 | 29.71835 | 544 ft | 167 kts | 322° |
| 2026-04-21 16:35 | 30.90205 | 29.71012 | 318 ft | 167 kts | 322° |
| 2026-04-21 16:36 | 30.91133 | 29.70193 | 165 ft | 162 kts | 322° |
| 2026-04-21 16:36 | 30.91836 | 29.69559 | 165 ft | 82 kts | 323° |
| 2026-04-21 16:36 | 30.92118 | 29.69296 | 167 ft | 42 kts | 320° |
| 2026-04-21 16:36 | 30.92233 | 29.69139 | 169 ft | 23 kts | 296° |
| 2026-04-21 16:37 | 30.92291 | 29.68974 | 172 ft | 21 kts | 291° |
| 2026-04-21 16:37 | 30.92371 | 29.68876 | 174 ft | 15 kts | 6° |
| 2026-04-21 16:37 | 30.92458 | 29.68960 | 167 ft | 19 kts | 49° |
| 2026-04-21 16:37 | 30.92541 | 29.69085 | 168 ft | 20 kts | 53° |
| 2026-04-21 16:38 | 30.92629 | 29.69221 | 169 ft | 22 kts | 53° |
| 2026-04-21 16:38 | 30.92723 | 29.69366 | 169 ft | 23 kts | 52° |
| 2026-04-21 16:38 | 30.92823 | 29.69516 | 170 ft | 24 kts | 52° |
| 2026-04-21 16:38 | 30.92913 | 29.69611 | 170 ft | 12 kts | 358° |
| 2026-04-21 16:39 | 30.92987 | 29.69610 | 171 ft | 10 kts | 25° |
| 2026-04-21 16:39 | 30.93015 | 29.69630 | 171 ft | 0 kts | 37° |